sensor_id;sensor_type;location;lat;lon;timestamp;pressure;altitude;pressure_sealevel;temperature;humidity
66196;BME280;53000;45.182;5.736;2022-09-09T00:02:11;99102.19;;;22.85;46.85
66196;BME280;53000;45.182;5.736;2022-09-09T00:04:40;99093.50;;;22.77;46.90
66196;BME280;53000;45.182;5.736;2022-09-09T00:09:45;99102.56;;;22.72;46.52
66196;BME280;53000;45.182;5.736;2022-09-09T00:12:17;99103.66;;;22.71;47.53
66196;BME280;53000;45.182;5.736;2022-09-09T00:15:00;99115.53;;;22.72;46.94
66196;BME280;53000;45.182;5.736;2022-09-09T00:17:38;99110.00;;;22.72;46.95
66196;BME280;53000;45.182;5.736;2022-09-09T00:20:35;99109.06;;;22.66;47.01
66196;BME280;53000;45.182;5.736;2022-09-09T00:23:32;99120.38;;;22.64;47.18
66196;BME280;53000;45.182;5.736;2022-09-09T00:26:04;99102.50;;;22.67;46.41
66196;BME280;53000;45.182;5.736;2022-09-09T00:28:39;99110.19;;;22.65;47.08
66196;BME280;53000;45.182;5.736;2022-09-09T00:31:16;99099.31;;;22.58;46.13
66196;BME280;53000;45.182;5.736;2022-09-09T00:33:44;99100.63;;;22.56;47.00
66196;BME280;53000;45.182;5.736;2022-09-09T00:36:13;99102.56;;;22.55;46.82
66196;BME280;53000;45.182;5.736;2022-09-09T00:38:45;99096.22;;;22.55;46.62
66196;BME280;53000;45.182;5.736;2022-09-09T00:43:58;99101.72;;;22.72;45.97
66196;BME280;53000;45.182;5.736;2022-09-09T00:49:05;99102.19;;;22.85;46.09
66196;BME280;53000;45.182;5.736;2022-09-09T00:51:46;99108.63;;;22.91;46.10
66196;BME280;53000;45.182;5.736;2022-09-09T00:54:44;99107.03;;;22.95;45.62
66196;BME280;53000;45.182;5.736;2022-09-09T00:57:23;99109.53;;;22.97;46.54
66196;BME280;53000;45.182;5.736;2022-09-09T01:05:58;99100.09;;;22.93;45.94
66196;BME280;53000;45.182;5.736;2022-09-09T01:17:36;99099.56;;;22.96;46.44
66196;BME280;53000;45.182;5.736;2022-09-09T01:22:36;99096.94;;;22.84;47.13
66196;BME280;53000;45.182;5.736;2022-09-09T01:25:22;99105.72;;;22.81;47.35
66196;BME280;53000;45.182;5.736;2022-09-09T01:28:01;99098.78;;;22.78;46.56
66196;BME280;53000;45.182;5.736;2022-09-09T01:30:27;99103.47;;;22.78;46.98
66196;BME280;53000;45.182;5.736;2022-09-09T01:32:55;99102.88;;;22.76;47.53
66196;BME280;53000;45.182;5.736;2022-09-09T01:38:06;99103.97;;;22.75;47.43
66196;BME280;53000;45.182;5.736;2022-09-09T01:40:32;99095.44;;;22.76;47.46
66196;BME280;53000;45.182;5.736;2022-09-09T01:42:58;99091.03;;;22.75;47.66
66196;BME280;53000;45.182;5.736;2022-09-09T01:45:23;99098.19;;;22.76;48.45
66196;BME280;53000;45.182;5.736;2022-09-09T01:47:52;99094.38;;;22.77;48.42
66196;BME280;53000;45.182;5.736;2022-09-09T01:50:19;99098.19;;;22.76;47.98
66196;BME280;53000;45.182;5.736;2022-09-09T01:52:49;99112.53;;;22.73;49.42
66196;BME280;53000;45.182;5.736;2022-09-09T01:55:42;99111.06;;;22.71;49.19
66196;BME280;53000;45.182;5.736;2022-09-09T02:01:35;99114.78;;;22.59;49.65
66196;BME280;53000;45.182;5.736;2022-09-09T02:06:56;99122.06;;;22.49;51.41
66196;BME280;53000;45.182;5.736;2022-09-09T02:09:25;99130.75;;;22.40;50.79
66196;BME280;53000;45.182;5.736;2022-09-09T02:12:13;99129.50;;;22.31;50.88
66196;BME280;53000;45.182;5.736;2022-09-09T02:14:43;99118.63;;;22.24;51.59
66196;BME280;53000;45.182;5.736;2022-09-09T02:17:13;99124.53;;;22.16;51.71
66196;BME280;53000;45.182;5.736;2022-09-09T02:19:52;99122.28;;;22.13;51.57
66196;BME280;53000;45.182;5.736;2022-09-09T02:22:23;99125.19;;;22.07;51.94
66196;BME280;53000;45.182;5.736;2022-09-09T02:24:51;99125.00;;;21.96;51.40
66196;BME280;53000;45.182;5.736;2022-09-09T02:27:20;99120.72;;;21.89;53.51
66196;BME280;53000;45.182;5.736;2022-09-09T02:29:47;99128.16;;;21.88;52.96
66196;BME280;53000;45.182;5.736;2022-09-09T02:32:19;99125.88;;;21.85;53.18
66196;BME280;53000;45.182;5.736;2022-09-09T02:34:57;99115.00;;;21.78;52.80
66196;BME280;53000;45.182;5.736;2022-09-09T02:37:31;99102.56;;;21.76;52.64
66196;BME280;53000;45.182;5.736;2022-09-09T02:40:02;99111.34;;;21.73;53.36
66196;BME280;53000;45.182;5.736;2022-09-09T02:42:27;99114.09;;;21.73;53.14
66196;BME280;53000;45.182;5.736;2022-09-09T02:44:52;99107.72;;;21.72;53.47
66196;BME280;53000;45.182;5.736;2022-09-09T02:47:25;99104.97;;;21.72;52.94
66196;BME280;53000;45.182;5.736;2022-09-09T02:52:47;99106.47;;;21.63;53.11
66196;BME280;53000;45.182;5.736;2022-09-09T02:55:37;99114.38;;;21.59;53.69
66196;BME280;53000;45.182;5.736;2022-09-09T02:58:07;99112.94;;;21.57;53.76
66196;BME280;53000;45.182;5.736;2022-09-09T03:00:34;99117.72;;;21.61;53.47
66196;BME280;53000;45.182;5.736;2022-09-09T03:03:03;99116.66;;;21.62;53.98
66196;BME280;53000;45.182;5.736;2022-09-09T03:05:28;99116.41;;;21.64;53.71
66196;BME280;53000;45.182;5.736;2022-09-09T03:07:53;99113.16;;;21.67;52.84
66196;BME280;53000;45.182;5.736;2022-09-09T03:10:19;99110.16;;;21.69;53.39
66196;BME280;53000;45.182;5.736;2022-09-09T03:12:44;99118.75;;;21.72;53.24
66196;BME280;53000;45.182;5.736;2022-09-09T03:15:10;99114.69;;;21.75;53.25
66196;BME280;53000;45.182;5.736;2022-09-09T03:17:36;99113.34;;;21.77;52.69
66196;BME280;53000;45.182;5.736;2022-09-09T03:20:05;99116.69;;;21.79;53.12
66196;BME280;53000;45.182;5.736;2022-09-09T03:22:31;99114.41;;;21.76;52.81
66196;BME280;53000;45.182;5.736;2022-09-09T03:24:56;99122.69;;;21.76;52.85
66196;BME280;53000;45.182;5.736;2022-09-09T03:27:22;99123.78;;;21.75;52.66
66196;BME280;53000;45.182;5.736;2022-09-09T03:29:47;99117.91;;;21.72;53.88
66196;BME280;53000;45.182;5.736;2022-09-09T03:32:16;99119.16;;;21.64;54.18
66196;BME280;53000;45.182;5.736;2022-09-09T03:34:42;99128.41;;;21.58;53.19
66196;BME280;53000;45.182;5.736;2022-09-09T03:37:08;99127.69;;;21.51;53.58
66196;BME280;53000;45.182;5.736;2022-09-09T03:39:33;99127.09;;;21.49;54.07
66196;BME280;53000;45.182;5.736;2022-09-09T03:41:59;99139.31;;;21.41;53.13
66196;BME280;53000;45.182;5.736;2022-09-09T03:44:24;99141.50;;;21.27;53.61
66196;BME280;53000;45.182;5.736;2022-09-09T03:46:49;99139.59;;;21.16;53.79
66196;BME280;53000;45.182;5.736;2022-09-09T03:49:15;99147.50;;;21.12;54.55
66196;BME280;53000;45.182;5.736;2022-09-09T03:51:40;99148.22;;;21.08;54.18
66196;BME280;53000;45.182;5.736;2022-09-09T03:54:07;99143.47;;;21.03;54.42
66196;BME280;53000;45.182;5.736;2022-09-09T03:56:35;99148.13;;;21.02;54.18
66196;BME280;53000;45.182;5.736;2022-09-09T03:59:02;99140.94;;;21.01;53.21
66196;BME280;53000;45.182;5.736;2022-09-09T04:01:28;99150.78;;;20.97;53.83
66196;BME280;53000;45.182;5.736;2022-09-09T04:03:53;99154.00;;;20.94;53.90
66196;BME280;53000;45.182;5.736;2022-09-09T04:06:20;99152.78;;;20.90;54.26
66196;BME280;53000;45.182;5.736;2022-09-09T04:08:46;99148.84;;;20.86;53.57
66196;BME280;53000;45.182;5.736;2022-09-09T04:11:14;99146.00;;;20.81;53.55
66196;BME280;53000;45.182;5.736;2022-09-09T04:13:40;99147.66;;;20.82;53.46
66196;BME280;53000;45.182;5.736;2022-09-09T04:16:09;99150.16;;;20.83;53.04
66196;BME280;53000;45.182;5.736;2022-09-09T04:18:35;99148.84;;;20.86;53.20
66196;BME280;53000;45.182;5.736;2022-09-09T04:21:01;99143.84;;;20.83;53.51
66196;BME280;53000;45.182;5.736;2022-09-09T04:23:28;99148.75;;;20.81;53.54
66196;BME280;53000;45.182;5.736;2022-09-09T04:25:57;99144.56;;;20.78;53.45
66196;BME280;53000;45.182;5.736;2022-09-09T04:28:25;99143.69;;;20.78;53.33
66196;BME280;53000;45.182;5.736;2022-09-09T04:30:52;99138.81;;;20.80;53.42
66196;BME280;53000;45.182;5.736;2022-09-09T04:33:17;99147.91;;;20.80;53.44
66196;BME280;53000;45.182;5.736;2022-09-09T04:35:48;99154.72;;;20.78;53.39
66196;BME280;53000;45.182;5.736;2022-09-09T04:38:14;99152.44;;;20.75;53.66
66196;BME280;53000;45.182;5.736;2022-09-09T04:40:51;99151.84;;;20.73;53.54
66196;BME280;53000;45.182;5.736;2022-09-09T04:43:19;99159.03;;;20.74;53.67
66196;BME280;53000;45.182;5.736;2022-09-09T04:45:50;99161.41;;;20.70;53.71
66196;BME280;53000;45.182;5.736;2022-09-09T04:48:19;99162.13;;;20.66;53.44
66196;BME280;53000;45.182;5.736;2022-09-09T04:51:00;99160.94;;;20.61;52.74
66196;BME280;53000;45.182;5.736;2022-09-09T04:53:27;99155.66;;;20.60;53.24
66196;BME280;53000;45.182;5.736;2022-09-09T04:56:00;99160.56;;;20.58;52.68
66196;BME280;53000;45.182;5.736;2022-09-09T04:58:26;99155.25;;;20.56;52.93
66196;BME280;53000;45.182;5.736;2022-09-09T05:00:52;99167.81;;;20.52;53.21
66196;BME280;53000;45.182;5.736;2022-09-09T05:03:17;99165.19;;;20.46;53.21
66196;BME280;53000;45.182;5.736;2022-09-09T05:05:42;99170.78;;;20.39;53.21
66196;BME280;53000;45.182;5.736;2022-09-09T05:08:08;99170.44;;;20.35;53.66
66196;BME280;53000;45.182;5.736;2022-09-09T05:10:37;99168.75;;;20.34;53.86
66196;BME280;53000;45.182;5.736;2022-09-09T05:13:02;99175.34;;;20.33;54.10
66196;BME280;53000;45.182;5.736;2022-09-09T05:15:28;99179.63;;;20.29;54.11
66196;BME280;53000;45.182;5.736;2022-09-09T05:17:59;99183.91;;;20.25;53.89
66196;BME280;53000;45.182;5.736;2022-09-09T05:20:26;99185.22;;;20.22;53.65
66196;BME280;53000;45.182;5.736;2022-09-09T05:22:55;99192.38;;;20.23;53.81
66196;BME280;53000;45.182;5.736;2022-09-09T05:25:21;99192.59;;;20.22;54.04
66196;BME280;53000;45.182;5.736;2022-09-09T05:27:47;99187.59;;;20.19;53.34
66196;BME280;53000;45.182;5.736;2022-09-09T05:30:12;99190.34;;;20.19;53.81
66196;BME280;53000;45.182;5.736;2022-09-09T05:32:38;99191.78;;;20.21;53.80
66196;BME280;53000;45.182;5.736;2022-09-09T05:35:03;99188.81;;;20.23;53.78
66196;BME280;53000;45.182;5.736;2022-09-09T05:37:30;99200.19;;;20.27;53.59
66196;BME280;53000;45.182;5.736;2022-09-09T05:39:56;99202.22;;;20.31;53.32
66196;BME280;53000;45.182;5.736;2022-09-09T05:42:21;99211.69;;;20.35;53.85
66196;BME280;53000;45.182;5.736;2022-09-09T05:44:47;99207.84;;;20.36;53.69
66196;BME280;53000;45.182;5.736;2022-09-09T05:47:12;99210.34;;;20.38;53.53
66196;BME280;53000;45.182;5.736;2022-09-09T05:49:37;99208.66;;;20.37;53.70
66196;BME280;53000;45.182;5.736;2022-09-09T05:52:03;99215.84;;;20.38;53.77
66196;BME280;53000;45.182;5.736;2022-09-09T05:54:29;99208.44;;;20.38;53.15
66196;BME280;53000;45.182;5.736;2022-09-09T05:56:55;99212.03;;;20.39;53.66
66196;BME280;53000;45.182;5.736;2022-09-09T05:59:20;99218.38;;;20.39;53.37
66196;BME280;53000;45.182;5.736;2022-09-09T06:01:45;99218.13;;;20.41;54.07
66196;BME280;53000;45.182;5.736;2022-09-09T06:04:11;99219.44;;;20.38;53.49
66196;BME280;53000;45.182;5.736;2022-09-09T06:06:37;99215.84;;;20.38;53.27
66196;BME280;53000;45.182;5.736;2022-09-09T06:09:06;99215.25;;;20.36;53.49
66196;BME280;53000;45.182;5.736;2022-09-09T06:11:37;99214.16;;;20.37;53.28
66196;BME280;53000;45.182;5.736;2022-09-09T06:14:03;99213.34;;;20.36;53.81
66196;BME280;53000;45.182;5.736;2022-09-09T06:16:29;99228.41;;;20.34;53.73
66196;BME280;53000;45.182;5.736;2022-09-09T06:18:58;99221.69;;;20.30;53.60
66196;BME280;53000;45.182;5.736;2022-09-09T06:21:26;99228.00;;;20.30;54.01
66196;BME280;53000;45.182;5.736;2022-09-09T06:23:51;99226.97;;;20.31;54.07
66196;BME280;53000;45.182;5.736;2022-09-09T06:26:22;99232.44;;;20.31;53.43
66196;BME280;53000;45.182;5.736;2022-09-09T06:28:49;99218.72;;;20.31;53.34
66196;BME280;53000;45.182;5.736;2022-09-09T06:31:17;99221.69;;;20.30;53.44
66196;BME280;53000;45.182;5.736;2022-09-09T06:33:46;99216.56;;;20.33;53.31
66196;BME280;53000;45.182;5.736;2022-09-09T06:36:17;99222.41;;;20.37;53.44
66196;BME280;53000;45.182;5.736;2022-09-09T06:38:43;99222.19;;;20.38;53.53
66196;BME280;53000;45.182;5.736;2022-09-09T06:41:13;99225.03;;;20.32;53.74
66196;BME280;53000;45.182;5.736;2022-09-09T06:43:39;99225.97;;;20.26;53.66
66196;BME280;53000;45.182;5.736;2022-09-09T06:46:05;99225.97;;;20.26;53.47
66196;BME280;53000;45.182;5.736;2022-09-09T06:48:31;99234.13;;;20.32;53.38
66196;BME280;53000;45.182;5.736;2022-09-09T06:51:09;99243.56;;;20.36;53.55
66196;BME280;53000;45.182;5.736;2022-09-09T06:53:37;99247.41;;;20.35;53.31
66196;BME280;53000;45.182;5.736;2022-09-09T06:56:30;99241.53;;;20.32;54.02
66196;BME280;53000;45.182;5.736;2022-09-09T06:58:58;99241.84;;;20.23;53.90
66196;BME280;53000;45.182;5.736;2022-09-09T07:01:26;99241.25;;;20.21;54.27
66196;BME280;53000;45.182;5.736;2022-09-09T07:03:56;99252.41;;;20.27;53.63
66196;BME280;53000;45.182;5.736;2022-09-09T07:06:30;99249.16;;;20.30;54.69
66196;BME280;53000;45.182;5.736;2022-09-09T07:09:08;99242.84;;;20.29;54.46
66196;BME280;53000;45.182;5.736;2022-09-09T07:11:38;99231.84;;;20.29;53.77
66196;BME280;53000;45.182;5.736;2022-09-09T07:14:04;99224.22;;;20.31;54.58
66196;BME280;53000;45.182;5.736;2022-09-09T07:16:29;99222.91;;;20.34;54.56
66196;BME280;53000;45.182;5.736;2022-09-09T07:18:58;99223.00;;;20.39;53.97
66196;BME280;53000;45.182;5.736;2022-09-09T07:21:25;99227.34;;;20.47;53.86
66196;BME280;53000;45.182;5.736;2022-09-09T07:23:52;99235.66;;;20.58;53.54
66196;BME280;53000;45.182;5.736;2022-09-09T07:26:20;99241.19;;;20.70;53.25
66196;BME280;53000;45.182;5.736;2022-09-09T07:28:46;99232.94;;;20.82;53.38
66196;BME280;53000;45.182;5.736;2022-09-09T07:31:19;99230.44;;;20.92;52.74
66196;BME280;53000;45.182;5.736;2022-09-09T07:33:46;99231.41;;;20.98;52.65
66196;BME280;53000;45.182;5.736;2022-09-09T07:38:43;99229.50;;;20.98;52.49
66196;BME280;53000;45.182;5.736;2022-09-09T07:41:12;99232.84;;;21.00;52.62
66196;BME280;53000;45.182;5.736;2022-09-09T07:43:41;99242.53;;;21.03;52.54
66196;BME280;53000;45.182;5.736;2022-09-09T07:46:08;99241.94;;;21.01;52.60
66196;BME280;53000;45.182;5.736;2022-09-09T07:48:35;99235.34;;;21.02;52.57
66196;BME280;53000;45.182;5.736;2022-09-09T07:51:08;99229.97;;;21.07;52.63
66196;BME280;53000;45.182;5.736;2022-09-09T07:53:34;99233.91;;;21.11;52.10
66196;BME280;53000;45.182;5.736;2022-09-09T07:56:10;99230.22;;;21.17;52.28
66196;BME280;53000;45.182;5.736;2022-09-09T07:58:38;99225.41;;;21.24;52.10
66196;BME280;53000;45.182;5.736;2022-09-09T08:01:13;99227.78;;;21.33;51.72
66196;BME280;53000;45.182;5.736;2022-09-09T08:03:39;99219.19;;;21.41;51.53
66196;BME280;53000;45.182;5.736;2022-09-09T08:06:06;99222.19;;;21.51;51.10
66196;BME280;53000;45.182;5.736;2022-09-09T08:08:34;99229.00;;;21.60;50.41
66196;BME280;53000;45.182;5.736;2022-09-09T08:13:30;99226.66;;;21.81;49.75
66196;BME280;53000;45.182;5.736;2022-09-09T08:16:04;99218.84;;;21.90;49.95
66196;BME280;53000;45.182;5.736;2022-09-09T08:18:29;99225.41;;;22.00;49.65
66196;BME280;53000;45.182;5.736;2022-09-09T08:20:55;99228.59;;;22.09;48.88
66196;BME280;53000;45.182;5.736;2022-09-09T08:23:20;99225.34;;;22.24;48.76
66196;BME280;53000;45.182;5.736;2022-09-09T08:25:46;99217.81;;;22.36;48.68
66196;BME280;53000;45.182;5.736;2022-09-09T08:28:13;99218.00;;;22.46;48.60
66196;BME280;53000;45.182;5.736;2022-09-09T08:30:39;99224.28;;;22.59;47.86
66196;BME280;53000;45.182;5.736;2022-09-09T08:33:04;99228.31;;;22.68;47.86
66196;BME280;53000;45.182;5.736;2022-09-09T08:35:30;99234.25;;;22.77;47.71
66196;BME280;53000;45.182;5.736;2022-09-09T08:37:57;99233.59;;;22.86;48.23
66196;BME280;53000;45.182;5.736;2022-09-09T08:40:29;99229.25;;;22.91;47.52
66196;BME280;53000;45.182;5.736;2022-09-09T08:42:58;99216.34;;;22.96;47.84
66196;BME280;53000;45.182;5.736;2022-09-09T08:45:46;99228.34;;;23.02;46.86
66196;BME280;53000;45.182;5.736;2022-09-09T08:50:49;99233.59;;;23.03;46.92
66196;BME280;53000;45.182;5.736;2022-09-09T08:53:22;99228.97;;;23.09;46.58
66196;BME280;53000;45.182;5.736;2022-09-09T08:56:01;99221.97;;;23.18;46.34
66196;BME280;53000;45.182;5.736;2022-09-09T08:58:30;99228.47;;;23.29;46.02
66196;BME280;53000;45.182;5.736;2022-09-09T09:11:51;99221.38;;;26.29;40.04
66196;BME280;53000;45.182;5.736;2022-09-09T09:14:24;99224.69;;;27.54;39.92
66196;BME280;53000;45.182;5.736;2022-09-09T09:16:58;99223.16;;;28.42;36.42
66196;BME280;53000;45.182;5.736;2022-09-09T09:19:26;99237.88;;;29.27;33.92
66196;BME280;53000;45.182;5.736;2022-09-09T09:27:34;99218.78;;;31.89;29.37
66196;BME280;53000;45.182;5.736;2022-09-09T09:30:12;99222.44;;;32.54;30.25
66196;BME280;53000;45.182;5.736;2022-09-09T09:32:44;99212.53;;;33.15;30.78
66196;BME280;53000;45.182;5.736;2022-09-09T09:35:13;99219.38;;;33.63;28.60
66196;BME280;53000;45.182;5.736;2022-09-09T09:37:40;99215.66;;;33.85;26.48
66196;BME280;53000;45.182;5.736;2022-09-09T09:40:17;99210.34;;;33.75;25.60
66196;BME280;53000;45.182;5.736;2022-09-09T09:45:42;99213.19;;;33.92;28.37
66196;BME280;53000;45.182;5.736;2022-09-09T09:48:11;99206.59;;;34.06;25.29
66196;BME280;53000;45.182;5.736;2022-09-09T09:53:23;99208.41;;;34.01;26.86
66196;BME280;53000;45.182;5.736;2022-09-09T09:56:02;99200.16;;;34.05;24.34
66196;BME280;53000;45.182;5.736;2022-09-09T09:58:33;99201.03;;;34.23;26.83
66196;BME280;53000;45.182;5.736;2022-09-09T10:01:38;99198.59;;;34.39;21.47
66196;BME280;53000;45.182;5.736;2022-09-09T10:04:22;99197.41;;;34.57;25.88
66196;BME280;53000;45.182;5.736;2022-09-09T10:06:51;99193.28;;;34.72;21.87
66196;BME280;53000;45.182;5.736;2022-09-09T10:09:28;99194.75;;;34.87;23.17
66196;BME280;53000;45.182;5.736;2022-09-09T10:17:36;99193.50;;;35.79;22.10
66196;BME280;53000;45.182;5.736;2022-09-09T10:20:45;99188.78;;;35.92;21.05
66196;BME280;53000;45.182;5.736;2022-09-09T10:23:57;99186.59;;;35.97;21.01
66196;BME280;53000;45.182;5.736;2022-09-09T10:29:34;99190.47;;;35.84;21.12
66196;BME280;53000;45.182;5.736;2022-09-09T10:37:25;99179.91;;;35.42;22.39
66196;BME280;53000;45.182;5.736;2022-09-09T10:42:44;99184.25;;;35.31;20.81
66196;BME280;53000;45.182;5.736;2022-09-09T10:45:21;99184.81;;;34.98;22.14
66196;BME280;53000;45.182;5.736;2022-09-09T10:53:02;99172.63;;;34.68;21.85
66196;BME280;53000;45.182;5.736;2022-09-09T10:55:43;99173.31;;;34.65;22.94
66196;BME280;53000;45.182;5.736;2022-09-09T11:00:53;99168.00;;;34.72;22.67
66196;BME280;53000;45.182;5.736;2022-09-09T11:03:24;99156.75;;;34.72;23.55
66196;BME280;53000;45.182;5.736;2022-09-09T11:06:06;99159.50;;;34.90;23.91
66196;BME280;53000;45.182;5.736;2022-09-09T11:08:38;99162.41;;;35.28;24.26
66196;BME280;53000;45.182;5.736;2022-09-09T11:13:48;99160.31;;;35.55;21.66
66196;BME280;53000;45.182;5.736;2022-09-09T11:16:19;99163.63;;;35.57;21.51
66196;BME280;53000;45.182;5.736;2022-09-09T11:18:46;99157.78;;;35.62;22.41
66196;BME280;53000;45.182;5.736;2022-09-09T11:21:34;99151.50;;;35.56;20.89
66196;BME280;53000;45.182;5.736;2022-09-09T11:24:08;99146.44;;;35.41;21.08
66196;BME280;53000;45.182;5.736;2022-09-09T11:27:09;99149.31;;;35.32;21.84
66196;BME280;53000;45.182;5.736;2022-09-09T11:32:27;99150.69;;;35.17;22.64
66196;BME280;53000;45.182;5.736;2022-09-09T11:40:27;99147.44;;;34.89;22.29
66196;BME280;53000;45.182;5.736;2022-09-09T11:43:14;99153.09;;;34.80;21.54
66196;BME280;53000;45.182;5.736;2022-09-09T11:45:41;99155.25;;;34.75;20.82
66196;BME280;53000;45.182;5.736;2022-09-09T11:48:43;99154.28;;;34.71;22.28
66196;BME280;53000;45.182;5.736;2022-09-09T11:56:30;99169.63;;;34.12;23.18
66196;BME280;53000;45.182;5.736;2022-09-09T11:59:05;99153.06;;;34.02;22.51
66196;BME280;53000;45.182;5.736;2022-09-09T12:01:39;99165.63;;;33.87;22.75
66196;BME280;53000;45.182;5.736;2022-09-09T12:06:58;99156.28;;;33.60;23.65
66196;BME280;53000;45.182;5.736;2022-09-09T12:09:49;99162.19;;;33.59;23.29
66196;BME280;53000;45.182;5.736;2022-09-09T12:12:38;99160.09;;;33.65;23.57
66196;BME280;53000;45.182;5.736;2022-09-09T12:17:58;99149.13;;;33.54;22.92
66196;BME280;53000;45.182;5.736;2022-09-09T12:20:30;99154.66;;;33.59;22.39
66196;BME280;53000;45.182;5.736;2022-09-09T12:25:36;99159.59;;;33.63;22.66
66196;BME280;53000;45.182;5.736;2022-09-09T12:28:21;99160.41;;;33.63;21.75
66196;BME280;53000;45.182;5.736;2022-09-09T12:33:48;99145.34;;;33.59;21.71
66196;BME280;53000;45.182;5.736;2022-09-09T12:36:16;99146.75;;;33.62;22.13
66196;BME280;53000;45.182;5.736;2022-09-09T12:38:44;99145.06;;;33.60;20.58
66196;BME280;53000;45.182;5.736;2022-09-09T12:41:27;99134.66;;;33.61;22.89
66196;BME280;53000;45.182;5.736;2022-09-09T12:44:04;99140.28;;;33.61;22.67
66196;BME280;53000;45.182;5.736;2022-09-09T12:46:36;99133.88;;;33.69;22.60
66196;BME280;53000;45.182;5.736;2022-09-09T12:49:03;99138.50;;;33.83;21.40
66196;BME280;53000;45.182;5.736;2022-09-09T12:51:31;99129.78;;;33.93;22.28
66196;BME280;53000;45.182;5.736;2022-09-09T12:53:58;99133.91;;;34.04;22.11
66196;BME280;53000;45.182;5.736;2022-09-09T12:56:27;99131.44;;;34.03;20.54
66196;BME280;53000;45.182;5.736;2022-09-09T12:58:56;99130.94;;;34.00;20.35
66196;BME280;53000;45.182;5.736;2022-09-09T13:01:27;99138.53;;;34.00;20.57
66196;BME280;53000;45.182;5.736;2022-09-09T13:03:54;99130.44;;;34.07;21.57
66196;BME280;53000;45.182;5.736;2022-09-09T13:06:30;99129.28;;;33.99;20.34
66196;BME280;53000;45.182;5.736;2022-09-09T13:08:58;99142.16;;;33.83;19.57
66196;BME280;53000;45.182;5.736;2022-09-09T13:11:45;99134.69;;;33.70;19.98
66196;BME280;53000;45.182;5.736;2022-09-09T13:14:19;99132.69;;;33.62;20.19
66196;BME280;53000;45.182;5.736;2022-09-09T13:16:56;99125.03;;;33.45;19.88
66196;BME280;53000;45.182;5.736;2022-09-09T13:19:22;99132.91;;;33.34;20.45
66196;BME280;53000;45.182;5.736;2022-09-09T13:21:50;99119.69;;;33.26;20.87
66196;BME280;53000;45.182;5.736;2022-09-09T13:24:30;99128.41;;;33.24;21.06
66196;BME280;53000;45.182;5.736;2022-09-09T13:29:56;99119.91;;;33.47;21.94
66196;BME280;53000;45.182;5.736;2022-09-09T13:32:23;99128.50;;;33.59;20.59
66196;BME280;53000;45.182;5.736;2022-09-09T13:35:00;99125.09;;;33.62;20.78
66196;BME280;53000;45.182;5.736;2022-09-09T13:37:36;99125.25;;;33.66;20.00
66196;BME280;53000;45.182;5.736;2022-09-09T13:40:04;99131.75;;;33.75;20.27
66196;BME280;53000;45.182;5.736;2022-09-09T13:42:32;99119.53;;;33.79;20.05
66196;BME280;53000;45.182;5.736;2022-09-09T13:45:00;99129.91;;;33.70;19.52
66196;BME280;53000;45.182;5.736;2022-09-09T13:47:34;99130.88;;;33.66;19.96
66196;BME280;53000;45.182;5.736;2022-09-09T13:50:24;99128.41;;;33.64;21.10
66196;BME280;53000;45.182;5.736;2022-09-09T13:52:51;99138.34;;;33.70;20.28
66196;BME280;53000;45.182;5.736;2022-09-09T13:55:20;99135.69;;;33.74;19.32
66196;BME280;53000;45.182;5.736;2022-09-09T13:57:57;99133.69;;;33.66;20.07
66196;BME280;53000;45.182;5.736;2022-09-09T14:00:24;99130.06;;;33.65;19.42
66196;BME280;53000;45.182;5.736;2022-09-09T14:02:50;99131.38;;;33.68;20.17
66196;BME280;53000;45.182;5.736;2022-09-09T14:05:17;99123.13;;;33.71;19.60
66196;BME280;53000;45.182;5.736;2022-09-09T14:07:44;99128.25;;;33.69;18.93
66196;BME280;53000;45.182;5.736;2022-09-09T14:10:10;99131.84;;;33.61;18.96
66196;BME280;53000;45.182;5.736;2022-09-09T14:12:35;99136.13;;;33.58;20.07
66196;BME280;53000;45.182;5.736;2022-09-09T14:15:06;99128.72;;;33.63;20.46
66196;BME280;53000;45.182;5.736;2022-09-09T14:17:32;99135.50;;;33.62;19.55
66196;BME280;53000;45.182;5.736;2022-09-09T14:19:58;99132.31;;;33.54;19.64
66196;BME280;53000;45.182;5.736;2022-09-09T14:22:24;99133.09;;;33.46;20.36
66196;BME280;53000;45.182;5.736;2022-09-09T14:24:50;99131.16;;;33.47;20.49
66196;BME280;53000;45.182;5.736;2022-09-09T14:27:16;99126.34;;;33.47;19.09
66196;BME280;53000;45.182;5.736;2022-09-09T14:29:42;99128.66;;;33.45;20.43
66196;BME280;53000;45.182;5.736;2022-09-09T14:32:09;99127.66;;;33.41;19.78
66196;BME280;53000;45.182;5.736;2022-09-09T14:34:34;99128.47;;;33.41;19.68
66196;BME280;53000;45.182;5.736;2022-09-09T14:37:00;99124.50;;;33.34;18.40
66196;BME280;53000;45.182;5.736;2022-09-09T14:39:25;99135.03;;;33.28;18.75
66196;BME280;53000;45.182;5.736;2022-09-09T14:41:51;99141.22;;;33.16;19.09
66196;BME280;53000;45.182;5.736;2022-09-09T14:44:16;99135.91;;;33.06;17.68
66196;BME280;53000;45.182;5.736;2022-09-09T14:46:42;99134.00;;;32.93;17.86
66196;BME280;53000;45.182;5.736;2022-09-09T14:49:08;99130.63;;;32.82;18.44
66196;BME280;53000;45.182;5.736;2022-09-09T14:51:35;99125.53;;;32.84;19.66
66196;BME280;53000;45.182;5.736;2022-09-09T14:54:01;99127.41;;;32.89;20.13
66196;BME280;53000;45.182;5.736;2022-09-09T14:56:29;99120.31;;;32.91;19.58
66196;BME280;53000;45.182;5.736;2022-09-09T14:58:57;99123.63;;;32.93;19.74
66196;BME280;53000;45.182;5.736;2022-09-09T15:01:24;99126.09;;;32.95;19.65
66196;BME280;53000;45.182;5.736;2022-09-09T15:03:56;99131.19;;;32.93;18.95
66196;BME280;53000;45.182;5.736;2022-09-09T15:06:23;99126.84;;;32.78;19.87
66196;BME280;53000;45.182;5.736;2022-09-09T15:08:51;99130.28;;;32.52;18.37
66196;BME280;53000;45.182;5.736;2022-09-09T15:11:17;99126.66;;;32.29;19.34
66196;BME280;53000;45.182;5.736;2022-09-09T15:13:43;99127.09;;;32.23;19.51
66196;BME280;53000;45.182;5.736;2022-09-09T15:16:14;99133.50;;;32.23;18.95
66196;BME280;53000;45.182;5.736;2022-09-09T15:18:40;99125.09;;;32.23;19.65
66196;BME280;53000;45.182;5.736;2022-09-09T15:21:09;99131.44;;;32.29;19.74